CheckWX is a tool to help pilots better visualize weather data.  It is not intended as a substitute for an official pre-flight weather briefing.

04:19:42 UTC

EGKK METAR
London Gatwick Airport
London, United Kingdom
Current

30 mins ago

EGKK 270350Z 04014KT 9999 BKN011 14/12 Q1028
Observed
Jun-27 @ 03:50 UTC
Wind
  • 040° at 14 KTS
Visibility
10,000+ meters
Flight Rules
MVFR
Cloud Levels
  • Broken at 1,100' AGL
Temperature
14°C / 57°F
Dewpoint
12°C / 54°F
Humidity
88%
Altimeter
30.35" Hg
Pressure
1027.92 hPa
Previous

60 mins ago

EGKK 270320Z 04014KT 9999 BKN011 14/12 Q1028
Observed
Jun-27 @ 03:20 UTC
Wind
  • 040° at 14 KTS
Visibility
10,000+ meters
Flight Rules
MVFR
Cloud Levels
  • Broken at 1,100' AGL
Temperature
14°C / 57°F
Dewpoint
12°C / 54°F
Humidity
88%
Altimeter
30.35" Hg
Pressure
1027.92 hPa
Previous

1 hour ago

EGKK 270250Z 05014KT 9999 BKN011 14/12 Q1028
Observed
Jun-27 @ 02:50 UTC
Wind
  • 050° at 14 KTS
Visibility
10,000+ meters
Flight Rules
MVFR
Cloud Levels
  • Broken at 1,100' AGL
Temperature
14°C / 57°F
Dewpoint
12°C / 54°F
Humidity
88%
Altimeter
30.35" Hg
Pressure
1027.92 hPa